Doylestown, Pennsylvania
Current Conditions -  °F | °C
As of 7:54 AM on Tuesday 21 Oct 2014 (Local Time) from KDYL Reporting Station
Overcast Overcast  
Wind Chill: 48°   Ceiling: 5000
Heat Index: 48°   Visibility: 10mi
Dew Point: 47°   Wind: 3mph
Humidity: 96%   Direction: 20°NNE
Pressure: 29.88"   Gusts: NA
Location:  40.31°N, 75.13°W
Report Text: KDYL 211154Z AUTO 02003KT 10SM BKN050 OVC090 09/08 A2988 RMK AO2 SLP120 60000 T00890083 10111 20089 55001
Loading
Personal Weather Stations






























Interactive Weather Map
Tropical Storm Tracking
New forecast layout! Learn more

10-Day Weather Forecast

Advertisements
Track Severe Weather on mobile